sensor_id;sensor_type;location;lat;lon;timestamp;temperature;humidity
25914;DHT22;13718;50.922;5.346;2023-04-24T00:01:40;12.00;99.90
25914;DHT22;13718;50.922;5.346;2023-04-24T00:04:08;12.10;99.90
25914;DHT22;13718;50.922;5.346;2023-04-24T00:06:36;12.00;99.90
25914;DHT22;13718;50.922;5.346;2023-04-24T00:09:03;12.00;99.90
25914;DHT22;13718;50.922;5.346;2023-04-24T00:11:29;11.90;99.90
25914;DHT22;13718;50.922;5.346;2023-04-24T00:13:55;11.80;99.90
25914;DHT22;13718;50.922;5.346;2023-04-24T00:16:21;11.80;99.90
25914;DHT22;13718;50.922;5.346;2023-04-24T00:18:46;11.80;99.90
25914;DHT22;13718;50.922;5.346;2023-04-24T00:21:13;11.70;99.90
25914;DHT22;13718;50.922;5.346;2023-04-24T00:23:40;11.80;99.90
25914;DHT22;13718;50.922;5.346;2023-04-24T00:26:05;11.80;99.90
25914;DHT22;13718;50.922;5.346;2023-04-24T00:28:31;11.80;99.90
25914;DHT22;13718;50.922;5.346;2023-04-24T00:30:57;11.70;99.90
25914;DHT22;13718;50.922;5.346;2023-04-24T00:33:22;11.70;99.90
25914;DHT22;13718;50.922;5.346;2023-04-24T00:35:48;11.70;99.90
25914;DHT22;13718;50.922;5.346;2023-04-24T00:38:14;11.90;99.90
25914;DHT22;13718;50.922;5.346;2023-04-24T00:40:39;11.80;99.90
25914;DHT22;13718;50.922;5.346;2023-04-24T00:43:05;11.70;99.90
25914;DHT22;13718;50.922;5.346;2023-04-24T00:45:30;11.80;99.90
25914;DHT22;13718;50.922;5.346;2023-04-24T00:47:56;11.80;99.90
25914;DHT22;13718;50.922;5.346;2023-04-24T00:50:23;11.60;99.90
25914;DHT22;13718;50.922;5.346;2023-04-24T00:52:49;11.70;99.90
25914;DHT22;13718;50.922;5.346;2023-04-24T00:55:16;11.70;99.90
25914;DHT22;13718;50.922;5.346;2023-04-24T00:57:42;11.80;99.90
25914;DHT22;13718;50.922;5.346;2023-04-24T01:00:08;11.80;99.90
25914;DHT22;13718;50.922;5.346;2023-04-24T01:02:41;11.70;99.90
25914;DHT22;13718;50.922;5.346;2023-04-24T01:05:11;11.70;99.90
25914;DHT22;13718;50.922;5.346;2023-04-24T01:07:38;11.60;99.90
25914;DHT22;13718;50.922;5.346;2023-04-24T01:10:04;11.70;99.90
25914;DHT22;13718;50.922;5.346;2023-04-24T01:12:30;11.70;99.90
25914;DHT22;13718;50.922;5.346;2023-04-24T01:14:56;11.60;99.90
25914;DHT22;13718;50.922;5.346;2023-04-24T01:17:22;11.80;99.90
25914;DHT22;13718;50.922;5.346;2023-04-24T01:19:48;11.80;99.90
25914;DHT22;13718;50.922;5.346;2023-04-24T01:22:14;11.60;99.90
25914;DHT22;13718;50.922;5.346;2023-04-24T01:24:41;11.80;99.90
25914;DHT22;13718;50.922;5.346;2023-04-24T01:27:08;11.70;99.90
25914;DHT22;13718;50.922;5.346;2023-04-24T01:29:34;11.70;99.90
25914;DHT22;13718;50.922;5.346;2023-04-24T01:32:00;11.60;99.90
25914;DHT22;13718;50.922;5.346;2023-04-24T01:34:26;11.50;99.90
25914;DHT22;13718;50.922;5.346;2023-04-24T01:36:52;11.60;99.90
25914;DHT22;13718;50.922;5.346;2023-04-24T01:39:18;11.70;99.90
25914;DHT22;13718;50.922;5.346;2023-04-24T01:41:45;11.70;99.90
25914;DHT22;13718;50.922;5.346;2023-04-24T01:44:11;11.60;99.90
25914;DHT22;13718;50.922;5.346;2023-04-24T01:46:37;11.40;99.90
25914;DHT22;13718;50.922;5.346;2023-04-24T01:49:03;11.50;99.90
25914;DHT22;13718;50.922;5.346;2023-04-24T01:51:29;11.60;99.90
25914;DHT22;13718;50.922;5.346;2023-04-24T01:53:55;11.70;99.90
25914;DHT22;13718;50.922;5.346;2023-04-24T01:56:22;11.50;99.90
25914;DHT22;13718;50.922;5.346;2023-04-24T01:58:49;11.50;99.90
25914;DHT22;13718;50.922;5.346;2023-04-24T02:01:18;11.50;99.90
25914;DHT22;13718;50.922;5.346;2023-04-24T02:03:44;11.50;99.90
25914;DHT22;13718;50.922;5.346;2023-04-24T02:06:10;11.40;99.90
25914;DHT22;13718;50.922;5.346;2023-04-24T02:08:35;11.30;99.90
25914;DHT22;13718;50.922;5.346;2023-04-24T02:11:01;11.10;99.90
25914;DHT22;13718;50.922;5.346;2023-04-24T02:13:28;11.10;99.90
25914;DHT22;13718;50.922;5.346;2023-04-24T02:15:53;11.00;99.90
25914;DHT22;13718;50.922;5.346;2023-04-24T02:18:19;11.00;99.90
25914;DHT22;13718;50.922;5.346;2023-04-24T02:20:45;10.80;99.90
25914;DHT22;13718;50.922;5.346;2023-04-24T02:23:11;10.80;99.90
25914;DHT22;13718;50.922;5.346;2023-04-24T02:25:36;10.70;99.90
25914;DHT22;13718;50.922;5.346;2023-04-24T02:28:02;10.70;99.90
25914;DHT22;13718;50.922;5.346;2023-04-24T02:30:28;10.70;99.90
25914;DHT22;13718;50.922;5.346;2023-04-24T02:32:54;10.80;99.90
25914;DHT22;13718;50.922;5.346;2023-04-24T02:35:20;10.70;99.90
25914;DHT22;13718;50.922;5.346;2023-04-24T02:37:46;10.60;99.90
25914;DHT22;13718;50.922;5.346;2023-04-24T02:40:11;10.50;99.90
25914;DHT22;13718;50.922;5.346;2023-04-24T02:42:37;10.50;99.90
25914;DHT22;13718;50.922;5.346;2023-04-24T02:45:03;10.50;99.90
25914;DHT22;13718;50.922;5.346;2023-04-24T02:47:29;10.40;99.90
25914;DHT22;13718;50.922;5.346;2023-04-24T02:49:54;10.30;99.90
25914;DHT22;13718;50.922;5.346;2023-04-24T02:52:20;10.40;99.90
25914;DHT22;13718;50.922;5.346;2023-04-24T02:54:45;10.30;99.90
25914;DHT22;13718;50.922;5.346;2023-04-24T02:57:11;10.50;99.90
25914;DHT22;13718;50.922;5.346;2023-04-24T02:59:36;10.50;99.90
25914;DHT22;13718;50.922;5.346;2023-04-24T03:02:02;10.60;99.90
25914;DHT22;13718;50.922;5.346;2023-04-24T03:04:28;10.50;99.90
25914;DHT22;13718;50.922;5.346;2023-04-24T03:06:53;10.50;99.90
25914;DHT22;13718;50.922;5.346;2023-04-24T03:09:20;10.30;99.90
25914;DHT22;13718;50.922;5.346;2023-04-24T03:11:46;10.40;99.90
25914;DHT22;13718;50.922;5.346;2023-04-24T03:14:12;10.30;99.90
25914;DHT22;13718;50.922;5.346;2023-04-24T03:16:37;10.40;99.90
25914;DHT22;13718;50.922;5.346;2023-04-24T03:19:03;10.50;99.90
25914;DHT22;13718;50.922;5.346;2023-04-24T03:21:29;10.40;99.90
25914;DHT22;13718;50.922;5.346;2023-04-24T03:23:54;10.30;99.90
25914;DHT22;13718;50.922;5.346;2023-04-24T03:26:20;10.40;99.90
25914;DHT22;13718;50.922;5.346;2023-04-24T03:28:46;10.40;99.90
25914;DHT22;13718;50.922;5.346;2023-04-24T03:31:11;10.40;99.90
25914;DHT22;13718;50.922;5.346;2023-04-24T03:33:37;10.40;99.90
25914;DHT22;13718;50.922;5.346;2023-04-24T03:36:03;10.50;99.90
25914;DHT22;13718;50.922;5.346;2023-04-24T03:38:30;10.40;99.90
25914;DHT22;13718;50.922;5.346;2023-04-24T03:40:55;10.40;99.90
25914;DHT22;13718;50.922;5.346;2023-04-24T03:43:21;10.30;99.90
25914;DHT22;13718;50.922;5.346;2023-04-24T03:45:47;10.30;99.90
25914;DHT22;13718;50.922;5.346;2023-04-24T03:48:12;10.20;99.90
25914;DHT22;13718;50.922;5.346;2023-04-24T03:50:38;10.10;99.90
25914;DHT22;13718;50.922;5.346;2023-04-24T03:53:03;10.20;99.90
25914;DHT22;13718;50.922;5.346;2023-04-24T03:55:29;10.20;99.90
25914;DHT22;13718;50.922;5.346;2023-04-24T03:57:55;10.30;99.90
25914;DHT22;13718;50.922;5.346;2023-04-24T04:00:20;10.20;99.90
25914;DHT22;13718;50.922;5.346;2023-04-24T04:02:46;10.20;99.90
25914;DHT22;13718;50.922;5.346;2023-04-24T04:05:12;10.40;99.90
25914;DHT22;13718;50.922;5.346;2023-04-24T04:07:37;10.30;99.90
25914;DHT22;13718;50.922;5.346;2023-04-24T04:10:03;10.30;99.90
25914;DHT22;13718;50.922;5.346;2023-04-24T04:12:29;10.30;99.90
25914;DHT22;13718;50.922;5.346;2023-04-24T04:14:55;10.50;99.90
25914;DHT22;13718;50.922;5.346;2023-04-24T04:17:20;10.60;99.90
25914;DHT22;13718;50.922;5.346;2023-04-24T04:19:46;10.40;99.90
25914;DHT22;13718;50.922;5.346;2023-04-24T04:22:12;10.40;99.90
25914;DHT22;13718;50.922;5.346;2023-04-24T04:24:37;10.40;99.90
25914;DHT22;13718;50.922;5.346;2023-04-24T04:27:04;10.30;99.90
25914;DHT22;13718;50.922;5.346;2023-04-24T04:29:31;10.40;99.90
25914;DHT22;13718;50.922;5.346;2023-04-24T04:32:00;10.30;99.90
25914;DHT22;13718;50.922;5.346;2023-04-24T04:34:26;10.30;99.90
25914;DHT22;13718;50.922;5.346;2023-04-24T04:36:52;10.30;99.90
25914;DHT22;13718;50.922;5.346;2023-04-24T04:39:17;10.20;99.90
25914;DHT22;13718;50.922;5.346;2023-04-24T04:41:44;10.20;99.90
25914;DHT22;13718;50.922;5.346;2023-04-24T04:44:11;10.00;99.90
25914;DHT22;13718;50.922;5.346;2023-04-24T04:46:38;9.90;99.90
25914;DHT22;13718;50.922;5.346;2023-04-24T04:49:03;10.10;99.90
25914;DHT22;13718;50.922;5.346;2023-04-24T04:51:29;10.20;99.90
25914;DHT22;13718;50.922;5.346;2023-04-24T04:53:56;10.30;99.90
25914;DHT22;13718;50.922;5.346;2023-04-24T04:56:22;10.20;99.90
25914;DHT22;13718;50.922;5.346;2023-04-24T04:58:47;10.10;99.90
25914;DHT22;13718;50.922;5.346;2023-04-24T05:01:13;10.10;99.90
25914;DHT22;13718;50.922;5.346;2023-04-24T05:03:39;10.00;99.90
25914;DHT22;13718;50.922;5.346;2023-04-24T05:06:05;9.90;99.90
25914;DHT22;13718;50.922;5.346;2023-04-24T05:08:31;9.90;99.90
25914;DHT22;13718;50.922;5.346;2023-04-24T05:10:56;9.80;99.90
25914;DHT22;13718;50.922;5.346;2023-04-24T05:13:22;9.90;99.90
25914;DHT22;13718;50.922;5.346;2023-04-24T05:15:48;9.80;99.90
25914;DHT22;13718;50.922;5.346;2023-04-24T05:18:13;9.80;99.90
25914;DHT22;13718;50.922;5.346;2023-04-24T05:20:39;9.80;99.90
25914;DHT22;13718;50.922;5.346;2023-04-24T05:23:04;9.80;99.90
25914;DHT22;13718;50.922;5.346;2023-04-24T05:25:30;9.80;99.90
25914;DHT22;13718;50.922;5.346;2023-04-24T05:28:00;9.90;99.90
25914;DHT22;13718;50.922;5.346;2023-04-24T05:30:26;9.90;99.90
25914;DHT22;13718;50.922;5.346;2023-04-24T05:32:51;9.80;99.90
25914;DHT22;13718;50.922;5.346;2023-04-24T05:35:17;9.80;99.90
25914;DHT22;13718;50.922;5.346;2023-04-24T05:37:44;9.80;99.90
25914;DHT22;13718;50.922;5.346;2023-04-24T05:40:10;9.80;99.90
25914;DHT22;13718;50.922;5.346;2023-04-24T05:42:36;9.90;99.90
25914;DHT22;13718;50.922;5.346;2023-04-24T05:45:02;9.80;99.90
25914;DHT22;13718;50.922;5.346;2023-04-24T05:47:28;9.80;99.90
25914;DHT22;13718;50.922;5.346;2023-04-24T05:49:54;9.70;99.90
25914;DHT22;13718;50.922;5.346;2023-04-24T05:52:19;9.80;99.90
25914;DHT22;13718;50.922;5.346;2023-04-24T05:54:45;9.70;99.90
25914;DHT22;13718;50.922;5.346;2023-04-24T05:57:11;9.60;99.90
25914;DHT22;13718;50.922;5.346;2023-04-24T05:59:37;9.60;99.90
25914;DHT22;13718;50.922;5.346;2023-04-24T06:02:06;9.60;99.90
25914;DHT22;13718;50.922;5.346;2023-04-24T06:04:32;9.60;99.90
25914;DHT22;13718;50.922;5.346;2023-04-24T06:06:58;9.60;99.90
25914;DHT22;13718;50.922;5.346;2023-04-24T06:09:25;9.50;99.90
25914;DHT22;13718;50.922;5.346;2023-04-24T06:11:51;9.40;99.90
25914;DHT22;13718;50.922;5.346;2023-04-24T06:14:19;9.40;99.90
25914;DHT22;13718;50.922;5.346;2023-04-24T06:16:45;9.50;99.90
25914;DHT22;13718;50.922;5.346;2023-04-24T06:19:10;9.40;99.90
25914;DHT22;13718;50.922;5.346;2023-04-24T06:21:36;9.40;99.90
25914;DHT22;13718;50.922;5.346;2023-04-24T06:24:02;9.40;99.90
25914;DHT22;13718;50.922;5.346;2023-04-24T06:26:29;9.40;99.90
25914;DHT22;13718;50.922;5.346;2023-04-24T06:28:54;9.50;99.90
25914;DHT22;13718;50.922;5.346;2023-04-24T06:31:20;9.50;99.90
25914;DHT22;13718;50.922;5.346;2023-04-24T06:33:46;9.40;99.90
25914;DHT22;13718;50.922;5.346;2023-04-24T06:36:12;9.40;99.90
25914;DHT22;13718;50.922;5.346;2023-04-24T06:38:38;9.40;99.90
25914;DHT22;13718;50.922;5.346;2023-04-24T06:41:03;9.30;99.90
25914;DHT22;13718;50.922;5.346;2023-04-24T06:43:33;9.20;99.90
25914;DHT22;13718;50.922;5.346;2023-04-24T06:46:00;9.30;99.90
25914;DHT22;13718;50.922;5.346;2023-04-24T06:48:26;9.30;99.90
25914;DHT22;13718;50.922;5.346;2023-04-24T06:50:52;9.30;99.90
25914;DHT22;13718;50.922;5.346;2023-04-24T06:53:18;9.30;99.90
25914;DHT22;13718;50.922;5.346;2023-04-24T06:55:43;9.40;99.90
25914;DHT22;13718;50.922;5.346;2023-04-24T06:58:11;9.30;99.90
25914;DHT22;13718;50.922;5.346;2023-04-24T07:00:37;9.30;99.90
25914;DHT22;13718;50.922;5.346;2023-04-24T07:03:03;9.30;99.90
25914;DHT22;13718;50.922;5.346;2023-04-24T07:05:30;9.30;99.90
25914;DHT22;13718;50.922;5.346;2023-04-24T07:07:56;9.40;99.90
25914;DHT22;13718;50.922;5.346;2023-04-24T07:10:23;9.40;99.90
25914;DHT22;13718;50.922;5.346;2023-04-24T07:12:49;9.40;99.90
25914;DHT22;13718;50.922;5.346;2023-04-24T07:15:15;9.50;99.90
25914;DHT22;13718;50.922;5.346;2023-04-24T07:17:42;9.60;99.90
25914;DHT22;13718;50.922;5.346;2023-04-24T07:20:11;9.60;99.90
25914;DHT22;13718;50.922;5.346;2023-04-24T07:22:37;9.60;99.90
25914;DHT22;13718;50.922;5.346;2023-04-24T07:25:04;9.60;99.90
25914;DHT22;13718;50.922;5.346;2023-04-24T07:27:30;9.70;99.90
25914;DHT22;13718;50.922;5.346;2023-04-24T07:29:55;9.70;99.90
25914;DHT22;13718;50.922;5.346;2023-04-24T07:32:21;9.60;99.90
25914;DHT22;13718;50.922;5.346;2023-04-24T07:34:46;9.70;99.90
25914;DHT22;13718;50.922;5.346;2023-04-24T07:37:12;9.80;99.90
25914;DHT22;13718;50.922;5.346;2023-04-24T07:39:38;9.90;99.90
25914;DHT22;13718;50.922;5.346;2023-04-24T07:42:03;9.90;99.90
25914;DHT22;13718;50.922;5.346;2023-04-24T07:44:29;10.00;99.90
25914;DHT22;13718;50.922;5.346;2023-04-24T07:46:55;9.90;99.90
25914;DHT22;13718;50.922;5.346;2023-04-24T07:49:21;10.00;99.90
25914;DHT22;13718;50.922;5.346;2023-04-24T07:51:47;9.90;99.90
25914;DHT22;13718;50.922;5.346;2023-04-24T07:54:12;9.80;99.90
25914;DHT22;13718;50.922;5.346;2023-04-24T07:56:38;9.80;99.90
25914;DHT22;13718;50.922;5.346;2023-04-24T07:59:04;9.80;99.90
25914;DHT22;13718;50.922;5.346;2023-04-24T08:01:30;9.90;99.90
25914;DHT22;13718;50.922;5.346;2023-04-24T08:03:56;9.80;99.90
25914;DHT22;13718;50.922;5.346;2023-04-24T08:06:22;9.80;99.90
25914;DHT22;13718;50.922;5.346;2023-04-24T08:08:48;9.90;99.90
25914;DHT22;13718;50.922;5.346;2023-04-24T08:11:13;9.90;99.90
25914;DHT22;13718;50.922;5.346;2023-04-24T08:13:39;9.80;99.90
25914;DHT22;13718;50.922;5.346;2023-04-24T08:16:05;9.80;99.90
25914;DHT22;13718;50.922;5.346;2023-04-24T08:18:30;9.80;99.90
25914;DHT22;13718;50.922;5.346;2023-04-24T08:20:56;9.90;99.90
25914;DHT22;13718;50.922;5.346;2023-04-24T08:23:26;9.80;99.90
25914;DHT22;13718;50.922;5.346;2023-04-24T08:25:52;9.90;99.90
25914;DHT22;13718;50.922;5.346;2023-04-24T08:28:17;9.90;99.90
25914;DHT22;13718;50.922;5.346;2023-04-24T08:30:46;10.00;99.90
25914;DHT22;13718;50.922;5.346;2023-04-24T08:33:13;10.10;99.90
25914;DHT22;13718;50.922;5.346;2023-04-24T08:35:39;10.20;99.90
25914;DHT22;13718;50.922;5.346;2023-04-24T08:38:04;10.40;99.90
25914;DHT22;13718;50.922;5.346;2023-04-24T08:40:33;10.50;99.90
25914;DHT22;13718;50.922;5.346;2023-04-24T08:42:59;10.60;99.90
25914;DHT22;13718;50.922;5.346;2023-04-24T08:45:26;10.70;99.90
25914;DHT22;13718;50.922;5.346;2023-04-24T08:47:54;10.90;99.90
25914;DHT22;13718;50.922;5.346;2023-04-24T08:50:21;11.00;99.90
25914;DHT22;13718;50.922;5.346;2023-04-24T08:52:50;11.10;99.90
25914;DHT22;13718;50.922;5.346;2023-04-24T08:55:16;11.50;99.90
25914;DHT22;13718;50.922;5.346;2023-04-24T08:57:49;11.60;99.90
25914;DHT22;13718;50.922;5.346;2023-04-24T09:00:16;11.60;99.90
25914;DHT22;13718;50.922;5.346;2023-04-24T09:02:42;11.70;99.90
25914;DHT22;13718;50.922;5.346;2023-04-24T09:05:10;11.60;99.90
25914;DHT22;13718;50.922;5.346;2023-04-24T09:07:35;11.30;99.90
25914;DHT22;13718;50.922;5.346;2023-04-24T09:10:05;11.20;99.90
25914;DHT22;13718;50.922;5.346;2023-04-24T09:12:32;11.00;99.90
25914;DHT22;13718;50.922;5.346;2023-04-24T09:14:58;10.90;99.90
25914;DHT22;13718;50.922;5.346;2023-04-24T09:17:25;10.80;99.90
25914;DHT22;13718;50.922;5.346;2023-04-24T09:19:52;10.70;99.90
25914;DHT22;13718;50.922;5.346;2023-04-24T09:22:18;10.70;99.90
25914;DHT22;13718;50.922;5.346;2023-04-24T09:24:45;10.70;99.90
25914;DHT22;13718;50.922;5.346;2023-04-24T09:27:11;10.70;99.90
25914;DHT22;13718;50.922;5.346;2023-04-24T09:29:55;10.70;99.90
25914;DHT22;13718;50.922;5.346;2023-04-24T09:32:22;11.10;99.90
25914;DHT22;13718;50.922;5.346;2023-04-24T09:34:48;11.40;99.90
25914;DHT22;13718;50.922;5.346;2023-04-24T09:37:29;11.70;99.90
25914;DHT22;13718;50.922;5.346;2023-04-24T09:40:18;12.10;99.90
25914;DHT22;13718;50.922;5.346;2023-04-24T09:42:56;12.40;99.90
25914;DHT22;13718;50.922;5.346;2023-04-24T09:45:36;12.80;99.90
25914;DHT22;13718;50.922;5.346;2023-04-24T09:48:02;13.00;99.90
25914;DHT22;13718;50.922;5.346;2023-04-24T09:50:30;13.10;99.90
25914;DHT22;13718;50.922;5.346;2023-04-24T09:53:06;13.30;99.90
25914;DHT22;13718;50.922;5.346;2023-04-24T09:55:39;13.40;99.90
25914;DHT22;13718;50.922;5.346;2023-04-24T09:58:08;13.60;99.90
25914;DHT22;13718;50.922;5.346;2023-04-24T10:00:33;13.70;99.90
25914;DHT22;13718;50.922;5.346;2023-04-24T10:03:06;13.70;99.90
25914;DHT22;13718;50.922;5.346;2023-04-24T10:05:36;13.80;99.90
25914;DHT22;13718;50.922;5.346;2023-04-24T10:08:04;13.80;99.90
25914;DHT22;13718;50.922;5.346;2023-04-24T10:10:31;14.10;99.90
25914;DHT22;13718;50.922;5.346;2023-04-24T10:12:57;14.30;99.90
25914;DHT22;13718;50.922;5.346;2023-04-24T10:15:24;14.50;99.90
25914;DHT22;13718;50.922;5.346;2023-04-24T10:17:51;14.70;99.90
25914;DHT22;13718;50.922;5.346;2023-04-24T10:20:24;14.90;99.90
25914;DHT22;13718;50.922;5.346;2023-04-24T10:22:52;15.10;99.90
25914;DHT22;13718;50.922;5.346;2023-04-24T10:25:22;15.00;99.90
25914;DHT22;13718;50.922;5.346;2023-04-24T10:27:49;14.90;99.90
25914;DHT22;13718;50.922;5.346;2023-04-24T10:30:16;14.80;99.90
25914;DHT22;13718;50.922;5.346;2023-04-24T10:32:42;14.60;99.90
25914;DHT22;13718;50.922;5.346;2023-04-24T10:35:12;14.50;99.90
25914;DHT22;13718;50.922;5.346;2023-04-24T10:37:49;14.60;99.90
25914;DHT22;13718;50.922;5.346;2023-04-24T10:40:18;15.00;99.90
25914;DHT22;13718;50.922;5.346;2023-04-24T10:42:48;15.50;99.90
25914;DHT22;13718;50.922;5.346;2023-04-24T10:45:21;15.80;99.90
25914;DHT22;13718;50.922;5.346;2023-04-24T10:50:25;16.10;99.90
25914;DHT22;13718;50.922;5.346;2023-04-24T10:52:51;16.00;99.90
25914;DHT22;13718;50.922;5.346;2023-04-24T10:55:42;15.80;99.90
25914;DHT22;13718;50.922;5.346;2023-04-24T10:58:08;15.60;99.90
25914;DHT22;13718;50.922;5.346;2023-04-24T11:00:37;15.30;99.90
25914;DHT22;13718;50.922;5.346;2023-04-24T11:03:22;15.00;99.90
25914;DHT22;13718;50.922;5.346;2023-04-24T11:08:32;14.70;99.90
25914;DHT22;13718;50.922;5.346;2023-04-24T11:21:58;14.60;99.90
25914;DHT22;13718;50.922;5.346;2023-04-24T11:27:13;14.20;99.90
25914;DHT22;13718;50.922;5.346;2023-04-24T11:29:43;14.20;99.90
25914;DHT22;13718;50.922;5.346;2023-04-24T11:37:29;15.20;99.90
25914;DHT22;13718;50.922;5.346;2023-04-24T11:39:58;15.50;99.90
25914;DHT22;13718;50.922;5.346;2023-04-24T11:42:24;15.50;99.90
25914;DHT22;13718;50.922;5.346;2023-04-24T11:44:52;15.60;99.90
25914;DHT22;13718;50.922;5.346;2023-04-24T11:47:19;15.90;99.90
25914;DHT22;13718;50.922;5.346;2023-04-24T11:49:45;16.10;99.90
25914;DHT22;13718;50.922;5.346;2023-04-24T11:52:15;16.30;99.90
25914;DHT22;13718;50.922;5.346;2023-04-24T11:54:48;16.50;99.90
25914;DHT22;13718;50.922;5.346;2023-04-24T11:57:14;16.70;99.90
25914;DHT22;13718;50.922;5.346;2023-04-24T11:59:39;16.70;99.90
25914;DHT22;13718;50.922;5.346;2023-04-24T12:02:05;16.60;99.90
25914;DHT22;13718;50.922;5.346;2023-04-24T12:04:41;16.40;99.90
25914;DHT22;13718;50.922;5.346;2023-04-24T12:07:06;16.20;99.90
25914;DHT22;13718;50.922;5.346;2023-04-24T12:09:47;16.30;99.90
25914;DHT22;13718;50.922;5.346;2023-04-24T12:12:15;16.50;99.90
25914;DHT22;13718;50.922;5.346;2023-04-24T12:17:10;16.60;99.90
25914;DHT22;13718;50.922;5.346;2023-04-24T12:19:35;16.50;99.90
25914;DHT22;13718;50.922;5.346;2023-04-24T12:22:02;16.60;99.90
25914;DHT22;13718;50.922;5.346;2023-04-24T12:24:29;16.60;99.20
25914;DHT22;13718;50.922;5.346;2023-04-24T12:26:55;16.60;98.60
25914;DHT22;13718;50.922;5.346;2023-04-24T12:29:22;16.60;98.80
25914;DHT22;13718;50.922;5.346;2023-04-24T12:31:48;16.70;99.60
25914;DHT22;13718;50.922;5.346;2023-04-24T12:34:20;16.90;99.20
25914;DHT22;13718;50.922;5.346;2023-04-24T12:36:46;17.10;99.10
25914;DHT22;13718;50.922;5.346;2023-04-24T12:39:19;17.30;98.40
25914;DHT22;13718;50.922;5.346;2023-04-24T12:42:11;17.10;98.70
25914;DHT22;13718;50.922;5.346;2023-04-24T12:44:37;17.00;97.20
25914;DHT22;13718;50.922;5.346;2023-04-24T12:47:02;16.80;97.10
25914;DHT22;13718;50.922;5.346;2023-04-24T12:49:30;16.70;97.30
25914;DHT22;13718;50.922;5.346;2023-04-24T12:51:56;16.60;97.80
25914;DHT22;13718;50.922;5.346;2023-04-24T12:54:22;16.60;97.20
25914;DHT22;13718;50.922;5.346;2023-04-24T12:56:47;16.80;96.50
25914;DHT22;13718;50.922;5.346;2023-04-24T12:59:13;16.80;96.50
25914;DHT22;13718;50.922;5.346;2023-04-24T13:01:39;16.80;97.10
25914;DHT22;13718;50.922;5.346;2023-04-24T13:04:05;16.90;97.40
25914;DHT22;13718;50.922;5.346;2023-04-24T13:06:31;16.90;97.40
25914;DHT22;13718;50.922;5.346;2023-04-24T13:08:57;16.80;97.00
25914;DHT22;13718;50.922;5.346;2023-04-24T13:11:23;16.70;97.30
25914;DHT22;13718;50.922;5.346;2023-04-24T13:13:50;16.80;97.50
25914;DHT22;13718;50.922;5.346;2023-04-24T13:16:15;17.10;97.20
25914;DHT22;13718;50.922;5.346;2023-04-24T13:18:41;17.20;97.10
25914;DHT22;13718;50.922;5.346;2023-04-24T13:21:06;17.30;96.40
25914;DHT22;13718;50.922;5.346;2023-04-24T13:23:32;17.30;96.50
25914;DHT22;13718;50.922;5.346;2023-04-24T13:25:57;17.40;97.00
25914;DHT22;13718;50.922;5.346;2023-04-24T13:28:26;17.40;96.70
25914;DHT22;13718;50.922;5.346;2023-04-24T13:30:53;17.50;97.00
25914;DHT22;13718;50.922;5.346;2023-04-24T13:33:18;17.60;95.80
25914;DHT22;13718;50.922;5.346;2023-04-24T13:35:44;17.60;96.00
25914;DHT22;13718;50.922;5.346;2023-04-24T13:38:09;17.60;95.70
25914;DHT22;13718;50.922;5.346;2023-04-24T13:40:35;17.40;95.60
25914;DHT22;13718;50.922;5.346;2023-04-24T13:43:01;16.80;96.50
25914;DHT22;13718;50.922;5.346;2023-04-24T13:45:27;16.60;96.80
25914;DHT22;13718;50.922;5.346;2023-04-24T13:47:53;16.40;97.60
25914;DHT22;13718;50.922;5.346;2023-04-24T13:50:22;16.60;97.30
25914;DHT22;13718;50.922;5.346;2023-04-24T13:52:48;16.60;96.90
25914;DHT22;13718;50.922;5.346;2023-04-24T13:55:13;16.70;97.00
25914;DHT22;13718;50.922;5.346;2023-04-24T13:57:39;16.80;96.90
25914;DHT22;13718;50.922;5.346;2023-04-24T14:00:05;16.80;96.40
25914;DHT22;13718;50.922;5.346;2023-04-24T14:02:35;16.80;96.00
25914;DHT22;13718;50.922;5.346;2023-04-24T14:05:01;16.70;96.30
25914;DHT22;13718;50.922;5.346;2023-04-24T14:07:28;16.60;96.10
25914;DHT22;13718;50.922;5.346;2023-04-24T14:09:54;16.40;95.90
25914;DHT22;13718;50.922;5.346;2023-04-24T14:12:20;16.30;96.30
25914;DHT22;13718;50.922;5.346;2023-04-24T14:14:46;16.30;96.50
25914;DHT22;13718;50.922;5.346;2023-04-24T14:17:13;16.30;96.60
25914;DHT22;13718;50.922;5.346;2023-04-24T14:19:39;16.30;96.20
25914;DHT22;13718;50.922;5.346;2023-04-24T14:22:05;16.30;96.10
25914;DHT22;13718;50.922;5.346;2023-04-24T14:24:30;16.30;95.60
25914;DHT22;13718;50.922;5.346;2023-04-24T14:26:56;16.20;95.20
25914;DHT22;13718;50.922;5.346;2023-04-24T14:29:22;16.10;96.10
25914;DHT22;13718;50.922;5.346;2023-04-24T14:31:48;16.30;96.10
25914;DHT22;13718;50.922;5.346;2023-04-24T14:34:13;16.30;95.30
25914;DHT22;13718;50.922;5.346;2023-04-24T14:36:39;16.20;95.10
25914;DHT22;13718;50.922;5.346;2023-04-24T14:39:06;16.20;95.20
25914;DHT22;13718;50.922;5.346;2023-04-24T14:41:32;16.10;95.20
25914;DHT22;13718;50.922;5.346;2023-04-24T14:44:01;16.10;94.90
25914;DHT22;13718;50.922;5.346;2023-04-24T14:46:28;16.00;94.90
25914;DHT22;13718;50.922;5.346;2023-04-24T14:48:58;16.10;94.50
25914;DHT22;13718;50.922;5.346;2023-04-24T14:51:24;16.00;94.90
25914;DHT22;13718;50.922;5.346;2023-04-24T14:53:51;16.10;95.30
25914;DHT22;13718;50.922;5.346;2023-04-24T14:56:17;16.20;95.30
25914;DHT22;13718;50.922;5.346;2023-04-24T14:58:42;16.30;95.20
25914;DHT22;13718;50.922;5.346;2023-04-24T15:01:08;16.30;95.50
25914;DHT22;13718;50.922;5.346;2023-04-24T15:03:34;16.30;94.90
25914;DHT22;13718;50.922;5.346;2023-04-24T15:05:59;16.40;95.30
25914;DHT22;13718;50.922;5.346;2023-04-24T15:08:26;16.40;95.30
25914;DHT22;13718;50.922;5.346;2023-04-24T15:10:52;16.50;95.30
25914;DHT22;13718;50.922;5.346;2023-04-24T15:13:17;16.60;95.10
25914;DHT22;13718;50.922;5.346;2023-04-24T15:15:43;16.80;95.30
25914;DHT22;13718;50.922;5.346;2023-04-24T15:18:09;16.60;95.10
25914;DHT22;13718;50.922;5.346;2023-04-24T15:20:37;16.40;94.50
25914;DHT22;13718;50.922;5.346;2023-04-24T15:23:05;16.30;94.90
25914;DHT22;13718;50.922;5.346;2023-04-24T15:25:30;16.40;95.40
25914;DHT22;13718;50.922;5.346;2023-04-24T15:27:58;16.50;94.40
25914;DHT22;13718;50.922;5.346;2023-04-24T15:30:24;16.60;94.70
25914;DHT22;13718;50.922;5.346;2023-04-24T15:32:50;16.60;94.60
25914;DHT22;13718;50.922;5.346;2023-04-24T15:35:15;16.70;93.80
25914;DHT22;13718;50.922;5.346;2023-04-24T15:37:41;16.60;93.20
25914;DHT22;13718;50.922;5.346;2023-04-24T15:40:08;16.60;93.70
25914;DHT22;13718;50.922;5.346;2023-04-24T15:42:34;16.50;93.40
25914;DHT22;13718;50.922;5.346;2023-04-24T15:44:59;16.40;93.40
25914;DHT22;13718;50.922;5.346;2023-04-24T15:47:25;16.30;93.80
25914;DHT22;13718;50.922;5.346;2023-04-24T15:49:52;16.00;93.50
25914;DHT22;13718;50.922;5.346;2023-04-24T15:52:18;15.80;93.80
25914;DHT22;13718;50.922;5.346;2023-04-24T15:54:43;15.40;94.10
25914;DHT22;13718;50.922;5.346;2023-04-24T15:57:09;15.50;94.60
25914;DHT22;13718;50.922;5.346;2023-04-24T15:59:35;15.40;94.40